Anzahl Datensätze: 144
min. Temperatur: 8.7 °C
max. Temperatur: 20.8 °C
max. Windgeschwindigkeit: 38.5 km/h
Niederschlagsumme: 0.0 mm
| Datum |
Zeit |
Temp °C |
Feuchte % |
Taupunkt °C |
Luftdruck hPa |
Wind km/h |
Windrichtung |
Strahlung w/m² |
Niederschlag mm |
|---|---|---|---|---|---|---|---|---|---|
| 28.04.2026 | 00:00 | 12.7 | 53 | 3.4 | 1019.0 | 0.0 | NO | 0 | 0.0 |
| 28.04.2026 | 00:10 | 12.1 | 52 | 2.5 | 1018.8 | 0.0 | NO | 0 | 0.0 |
| 28.04.2026 | 00:20 | 11.8 | 52 | 2.3 | 1019.0 | 0.0 | NO | 0 | 0.0 |
| 28.04.2026 | 00:30 | 11.6 | 52 | 2.1 | 1018.9 | 0.0 | NO | 0 | 0.0 |
| 28.04.2026 | 00:40 | 11.7 | 51 | 1.9 | 1018.9 | 0.0 | NO | 0 | 0.0 |
| 28.04.2026 | 00:50 | 11.8 | 51 | 2.0 | 1018.8 | 0.0 | NO | 0 | 0.0 |
| 28.04.2026 | 01:00 | 11.6 | 51 | 1.8 | 1019.0 | 0.0 | NO | 0 | 0.0 |
| 28.04.2026 | 01:10 | 11.6 | 53 | 2.3 | 1018.9 | 0.0 | NO | 0 | 0.0 |
| 28.04.2026 | 01:20 | 11.4 | 53 | 2.2 | 1018.9 | 0.0 | NO | 0 | 0.0 |
| 28.04.2026 | 01:30 | 11.4 | 53 | 2.2 | 1019.0 | 0.0 | NO | 0 | 0.0 |
| 28.04.2026 | 01:40 | 11.3 | 55 | 2.6 | 1018.8 | 0.0 | NO | 0 | 0.0 |
| 28.04.2026 | 01:50 | 11.0 | 54 | 2.0 | 1018.7 | 0.0 | NO | 0 | 0.0 |
| 28.04.2026 | 02:00 | 10.8 | 56 | 2.4 | 1018.7 | 0.0 | NO | 0 | 0.0 |
| 28.04.2026 | 02:10 | 10.6 | 56 | 2.2 | 1018.7 | 0.0 | NO | 0 | 0.0 |
| 28.04.2026 | 02:20 | 10.7 | 58 | 2.8 | 1018.5 | 0.0 | NO | 0 | 0.0 |
| 28.04.2026 | 02:30 | 10.3 | 60 | 2.9 | 1018.6 | 0.0 | NO | 0 | 0.0 |
| 28.04.2026 | 02:40 | 10.2 | 60 | 2.8 | 1018.5 | 0.0 | NO | 0 | 0.0 |
| 28.04.2026 | 02:50 | 10.2 | 60 | 2.8 | 1018.6 | 0.0 | NO | 0 | 0.0 |
| 28.04.2026 | 03:00 | 10.3 | 59 | 2.6 | 1018.4 | 0.0 | NO | 0 | 0.0 |
| 28.04.2026 | 03:10 | 10.5 | 59 | 2.8 | 1018.4 | 0.0 | NO | 0 | 0.0 |
| 28.04.2026 | 03:20 | 10.2 | 59 | 2.5 | 1018.3 | 0.0 | NO | 0 | 0.0 |
| 28.04.2026 | 03:30 | 10.1 | 60 | 2.7 | 1018.3 | 0.0 | NO | 0 | 0.0 |
| 28.04.2026 | 03:40 | 10.1 | 60 | 2.7 | 1018.3 | 0.0 | NO | 0 | 0.0 |
| 28.04.2026 | 03:50 | 10.1 | 60 | 2.7 | 1018.1 | 0.0 | NO | 0 | 0.0 |
| 28.04.2026 | 04:00 | 10.0 | 60 | 2.6 | 1017.9 | 0.0 | NO | 0 | 0.0 |
| 28.04.2026 | 04:10 | 9.8 | 60 | 2.4 | 1018.1 | 0.0 | NO | 0 | 0.0 |
| 28.04.2026 | 04:20 | 9.7 | 61 | 2.5 | 1017.9 | 0.0 | NO | 0 | 0.0 |
| 28.04.2026 | 04:30 | 9.6 | 61 | 2.4 | 1018.0 | 0.0 | NNO | 0 | 0.0 |
| 28.04.2026 | 04:40 | 9.7 | 60 | 2.3 | 1018.0 | 0.0 | NO | 0 | 0.0 |
| 28.04.2026 | 04:50 | 9.5 | 60 | 2.1 | 1017.8 | 6.5 | NO | 0 | 0.0 |
| 28.04.2026 | 05:00 | 9.6 | 59 | 2.0 | 1017.8 | 6.5 | NNO | 0 | 0.0 |
| 28.04.2026 | 05:10 | 9.6 | 59 | 2.0 | 1017.8 | 3.2 | NNO | 0 | 0.0 |
| 28.04.2026 | 05:20 | 9.5 | 59 | 1.9 | 1017.7 | 0.0 | NO | 0 | 0.0 |
| 28.04.2026 | 05:30 | 9.5 | 59 | 1.9 | 1017.6 | 0.0 | NO | 0 | 0.0 |
| 28.04.2026 | 05:40 | 9.3 | 60 | 1.9 | 1017.7 | 0.0 | NO | 0 | 0.0 |
| 28.04.2026 | 05:50 | 9.1 | 61 | 2.0 | 1017.7 | 0.0 | N | 0 | 0.0 |
| 28.04.2026 | 06:00 | 9.1 | 61 | 2.0 | 1017.6 | 0.0 | NO | 0 | 0.0 |
| 28.04.2026 | 06:10 | 8.9 | 61 | 1.8 | 1017.5 | 4.7 | ONO | 0 | 0.0 |
| 28.04.2026 | 06:20 | 8.7 | 62 | 1.8 | 1017.4 | 4.7 | ONO | 0 | 0.0 |
| 28.04.2026 | 06:30 | 8.7 | 62 | 1.8 | 1017.4 | 6.5 | NO | 5 | 0.0 |
| 28.04.2026 | 06:40 | 8.7 | 62 | 1.8 | 1017.4 | 3.2 | NNO | 14 | 0.0 |
| 28.04.2026 | 06:50 | 8.9 | 62 | 2.0 | 1017.6 | 3.2 | NNO | 28 | 0.0 |
| 28.04.2026 | 07:00 | 9.1 | 62 | 2.2 | 1017.5 | 1.4 | NO | 35 | 0.0 |
| 28.04.2026 | 07:10 | 9.2 | 62 | 2.3 | 1017.5 | 6.5 | NNO | 42 | 0.0 |
| 28.04.2026 | 07:20 | 9.1 | 63 | 2.4 | 1017.6 | 6.5 | NNO | 47 | 0.0 |
| 28.04.2026 | 07:30 | 9.1 | 63 | 2.4 | 1017.6 | 4.7 | NNO | 58 | 0.0 |
| 28.04.2026 | 07:40 | 9.4 | 61 | 2.3 | 1017.7 | 9.7 | NNO | 65 | 0.0 |
| 28.04.2026 | 07:50 | 9.6 | 61 | 2.4 | 1017.7 | 9.7 | NO | 74 | 0.0 |
| 28.04.2026 | 08:00 | 9.8 | 60 | 2.4 | 1017.7 | 13.0 | NO | 74 | 0.0 |
| 28.04.2026 | 08:10 | 9.8 | 61 | 2.6 | 1017.5 | 13.0 | NO | 76 | 0.0 |
| 28.04.2026 | 08:20 | 9.7 | 61 | 2.5 | 1017.7 | 14.4 | ONO | 67 | 0.0 |
| 28.04.2026 | 08:30 | 9.7 | 61 | 2.5 | 1017.9 | 13.0 | NO | 58 | 0.0 |
| 28.04.2026 | 08:40 | 9.8 | 62 | 2.9 | 1017.8 | 9.7 | NO | 63 | 0.0 |
| 28.04.2026 | 08:50 | 10.2 | 61 | 3.0 | 1017.8 | 9.7 | NNO | 74 | 0.0 |
| 28.04.2026 | 09:00 | 10.2 | 60 | 2.8 | 1017.6 | 9.7 | NO | 90 | 0.0 |
| 28.04.2026 | 09:10 | 10.5 | 61 | 3.3 | 1017.6 | 9.7 | NO | 98 | 0.0 |
| 28.04.2026 | 09:20 | 11.2 | 59 | 3.5 | 1017.7 | 9.7 | NNO | 83 | 0.0 |
| 28.04.2026 | 09:30 | 11.2 | 58 | 3.2 | 1017.7 | 13.0 | NNO | 70 | 0.0 |
| 28.04.2026 | 09:40 | 11.3 | 58 | 3.3 | 1017.8 | 11.2 | NO | 72 | 0.0 |
| 28.04.2026 | 09:50 | 11.9 | 58 | 3.9 | 1017.7 | 13.0 | NNO | 186 | 0.0 |
| 28.04.2026 | 10:00 | 12.3 | 56 | 3.8 | 1017.7 | 13.0 | NNO | 483 | 0.0 |
| 28.04.2026 | 10:10 | 12.7 | 54 | 3.6 | 1017.6 | 11.2 | NO | 517 | 0.0 |
| 28.04.2026 | 10:20 | 13.0 | 54 | 3.9 | 1017.7 | 17.6 | NO | 548 | 0.0 |
| 28.04.2026 | 10:30 | 13.5 | 53 | 4.1 | 1017.9 | 13.0 | NO | 571 | 0.0 |
| 28.04.2026 | 10:40 | 14.1 | 53 | 4.7 | 1017.8 | 14.4 | ONO | 592 | 0.0 |
| 28.04.2026 | 10:50 | 14.1 | 51 | 4.1 | 1017.7 | 14.4 | NNO | 624 | 0.0 |
| 28.04.2026 | 11:00 | 14.5 | 54 | 5.3 | 1017.7 | 14.4 | NNO | 642 | 0.0 |
| 28.04.2026 | 11:10 | 14.7 | 51 | 4.7 | 1017.8 | 14.4 | NO | 663 | 0.0 |
| 28.04.2026 | 11:20 | 15.5 | 48 | 4.5 | 1017.6 | 16.2 | NNO | 677 | 0.0 |
| 28.04.2026 | 11:30 | 15.7 | 46 | 4.1 | 1017.7 | 17.6 | ONO | 643 | 0.0 |
| 28.04.2026 | 11:40 | 15.8 | 46 | 4.2 | 1017.7 | 17.6 | NNO | 682 | 0.0 |
| 28.04.2026 | 11:50 | 15.8 | 46 | 4.2 | 1017.8 | 17.6 | ONO | 742 | 0.0 |
| 28.04.2026 | 12:00 | 16.1 | 46 | 4.5 | 1017.7 | 19.4 | NO | 756 | 0.0 |
| 28.04.2026 | 12:10 | 16.5 | 45 | 4.5 | 1017.7 | 17.6 | N | 694 | 0.0 |
| 28.04.2026 | 12:20 | 16.8 | 48 | 5.7 | 1017.6 | 17.6 | NO | 677 | 0.0 |
| 28.04.2026 | 12:30 | 16.7 | 47 | 5.3 | 1017.7 | 19.4 | NO | 448 | 0.0 |
| 28.04.2026 | 12:40 | 17.3 | 45 | 5.3 | 1017.4 | 17.6 | NO | 838 | 0.0 |
| 28.04.2026 | 12:50 | 17.4 | 47 | 6.0 | 1017.5 | 17.6 | NO | 851 | 0.0 |
| 28.04.2026 | 13:00 | 17.8 | 46 | 6.0 | 1017.5 | 19.4 | NO | 937 | 0.0 |
| 28.04.2026 | 13:10 | 17.9 | 45 | 5.8 | 1017.4 | 19.4 | N | 939 | 0.0 |
| 28.04.2026 | 13:20 | 18.3 | 44 | 5.8 | 1017.3 | 19.4 | NO | 1062 | 0.0 |
| 28.04.2026 | 13:30 | 18.5 | 43 | 5.7 | 1017.3 | 14.4 | NO | 582 | 0.0 |
| 28.04.2026 | 13:40 | 19.0 | 42 | 5.8 | 1017.2 | 13.0 | NNO | 949 | 0.0 |
| 28.04.2026 | 13:50 | 19.4 | 39 | 5.1 | 1017.2 | 16.2 | NO | 930 | 0.0 |
| 28.04.2026 | 14:00 | 19.3 | 38 | 4.6 | 1017.2 | 14.4 | ONO | 325 | 0.0 |
| 28.04.2026 | 14:10 | 19.1 | 39 | 4.8 | 1017.2 | 14.4 | ONO | 613 | 0.0 |
| 28.04.2026 | 14:20 | 19.4 | 36 | 3.9 | 1017.2 | 20.9 | NO | 933 | 0.0 |
| 28.04.2026 | 14:30 | 19.8 | 35 | 3.9 | 1017.2 | 14.4 | OSO | 935 | 0.0 |
| 28.04.2026 | 14:40 | 20.7 | 34 | 4.3 | 1017.1 | 13.0 | ONO | 914 | 0.0 |
| 28.04.2026 | 14:50 | 20.4 | 36 | 4.8 | 1017.1 | 9.7 | ONO | 724 | 0.0 |
| 28.04.2026 | 15:00 | 20.3 | 35 | 4.3 | 1017.1 | 16.2 | NNO | 867 | 0.0 |
| 28.04.2026 | 15:10 | 19.9 | 33 | 3.1 | 1017.1 | 16.2 | O | 216 | 0.0 |
| 28.04.2026 | 15:20 | 20.6 | 34 | 4.2 | 1017.1 | 13.0 | ONO | 893 | 0.0 |
| 28.04.2026 | 15:30 | 20.8 | 33 | 3.9 | 1017.0 | 11.2 | NO | 786 | 0.0 |
| 28.04.2026 | 15:40 | 20.6 | 35 | 4.6 | 1017.1 | 13.0 | NO | 657 | 0.0 |
| 28.04.2026 | 15:50 | 20.7 | 36 | 5.1 | 1017.0 | 14.4 | NNO | 812 | 0.0 |
| 28.04.2026 | 16:00 | 20.4 | 35 | 4.4 | 1016.9 | 16.2 | NO | 237 | 0.0 |
| 28.04.2026 | 16:10 | 19.2 | 39 | 4.9 | 1017.0 | 16.2 | NO | 691 | 0.0 |
| 28.04.2026 | 16:20 | 20.1 | 36 | 4.6 | 1017.0 | 14.4 | NNO | 675 | 0.0 |
| 28.04.2026 | 16:30 | 19.9 | 36 | 4.4 | 1016.8 | 20.9 | NNO | 659 | 0.0 |
| 28.04.2026 | 16:40 | 19.8 | 34 | 3.5 | 1016.9 | 20.9 | ONO | 622 | 0.0 |
| 28.04.2026 | 16:50 | 19.9 | 35 | 4.0 | 1016.9 | 20.9 | NO | 617 | 0.0 |
| 28.04.2026 | 17:00 | 20.3 | 36 | 4.7 | 1016.9 | 20.9 | ONO | 621 | 0.0 |
| 28.04.2026 | 17:10 | 20.5 | 34 | 4.1 | 1016.8 | 19.4 | NO | 599 | 0.0 |
| 28.04.2026 | 17:20 | 19.9 | 36 | 4.4 | 1016.8 | 20.9 | ONO | 566 | 0.0 |
| 28.04.2026 | 17:30 | 20.1 | 36 | 4.6 | 1016.8 | 19.4 | NO | 601 | 0.0 |
| 28.04.2026 | 17:40 | 20.1 | 34 | 3.7 | 1016.7 | 19.4 | NO | 534 | 0.0 |
| 28.04.2026 | 17:50 | 19.9 | 35 | 4.0 | 1016.8 | 17.6 | ONO | 471 | 0.0 |
| 28.04.2026 | 18:00 | 19.8 | 35 | 3.9 | 1016.7 | 19.4 | ONO | 445 | 0.0 |
| 28.04.2026 | 18:10 | 19.6 | 36 | 4.1 | 1016.8 | 17.6 | NO | 434 | 0.0 |
| 28.04.2026 | 18:20 | 19.6 | 36 | 4.1 | 1016.9 | 17.6 | NNO | 251 | 0.0 |
| 28.04.2026 | 18:30 | 19.7 | 36 | 4.2 | 1016.8 | 16.2 | NNO | 385 | 0.0 |
| 28.04.2026 | 18:40 | 19.6 | 35 | 3.7 | 1017.0 | 17.6 | NO | 323 | 0.0 |
| 28.04.2026 | 18:50 | 19.4 | 35 | 3.5 | 1016.9 | 16.2 | ONO | 294 | 0.0 |
| 28.04.2026 | 19:00 | 19.3 | 36 | 3.9 | 1017.0 | 14.4 | NO | 258 | 0.0 |
| 28.04.2026 | 19:10 | 19.0 | 36 | 3.6 | 1017.1 | 14.4 | NO | 221 | 0.0 |
| 28.04.2026 | 19:20 | 18.7 | 37 | 3.7 | 1017.0 | 11.2 | NO | 188 | 0.0 |
| 28.04.2026 | 19:30 | 18.6 | 36 | 3.2 | 1017.1 | 13.0 | NO | 160 | 0.0 |
| 28.04.2026 | 19:40 | 18.3 | 36 | 3.0 | 1017.2 | 14.4 | NNO | 127 | 0.0 |
| 28.04.2026 | 19:50 | 18.2 | 35 | 2.5 | 1017.3 | 13.0 | NO | 93 | 0.0 |
| 28.04.2026 | 20:00 | 17.9 | 35 | 2.2 | 1017.3 | 13.0 | NO | 74 | 0.0 |
| 28.04.2026 | 20:10 | 17.6 | 36 | 2.3 | 1017.4 | 11.2 | NO | 51 | 0.0 |
| 28.04.2026 | 20:20 | 17.2 | 37 | 2.4 | 1017.5 | 11.2 | NNO | 30 | 0.0 |
| 28.04.2026 | 20:30 | 16.8 | 39 | 2.8 | 1017.6 | 9.7 | NO | 14 | 0.0 |
| 28.04.2026 | 20:40 | 16.3 | 42 | 3.4 | 1017.7 | 9.7 | NO | 7 | 0.0 |
| 28.04.2026 | 20:50 | 16.1 | 45 | 4.2 | 1017.8 | 11.2 | NNO | 0 | 0.0 |
| 28.04.2026 | 21:00 | 15.8 | 45 | 3.9 | 1018.1 | 11.2 | NNO | 0 | 0.0 |
| 28.04.2026 | 21:10 | 15.5 | 47 | 4.2 | 1018.2 | 11.2 | NO | 0 | 0.0 |
| 28.04.2026 | 21:20 | 15.4 | 47 | 4.1 | 1018.3 | 13.0 | NNO | 0 | 0.0 |
| 28.04.2026 | 21:30 | 15.1 | 48 | 4.2 | 1018.6 | 11.2 | NNO | 0 | 0.0 |
| 28.04.2026 | 21:40 | 15.1 | 48 | 4.2 | 1018.6 | 14.4 | NNO | 0 | 0.0 |
| 28.04.2026 | 21:50 | 15.1 | 48 | 4.2 | 1018.8 | 14.4 | NO | 0 | 0.0 |
| 28.04.2026 | 22:00 | 14.8 | 48 | 3.9 | 1018.9 | 16.2 | NO | 0 | 0.0 |
| 28.04.2026 | 22:10 | 14.6 | 49 | 4.0 | 1019.2 | 14.4 | NO | 0 | 0.0 |
| 28.04.2026 | 22:20 | 14.3 | 49 | 3.7 | 1019.3 | 14.4 | NNO | 0 | 0.0 |
| 28.04.2026 | 22:30 | 14.2 | 48 | 3.3 | 1019.3 | 14.4 | NO | 0 | 0.0 |
| 28.04.2026 | 22:40 | 14.1 | 48 | 3.3 | 1019.3 | 14.4 | N | 0 | 0.0 |
| 28.04.2026 | 22:50 | 14.1 | 47 | 3.0 | 1019.3 | 16.2 | NNO | 0 | 0.0 |
| 28.04.2026 | 23:00 | 13.9 | 47 | 2.8 | 1019.4 | 17.6 | NO | 0 | 0.0 |
| 28.04.2026 | 23:10 | 13.8 | 47 | 2.7 | 1019.6 | 17.6 | NO | 0 | 0.0 |
| 28.04.2026 | 23:20 | 13.7 | 47 | 2.6 | 1019.6 | 17.6 | NNO | 0 | 0.0 |
| 28.04.2026 | 23:30 | 13.4 | 48 | 2.6 | 1019.7 | 13.0 | NO | 0 | 0.0 |
| 28.04.2026 | 23:40 | 13.3 | 48 | 2.5 | 1019.7 | 13.0 | NNO | 0 | 0.0 |
| 28.04.2026 | 23:50 | 13.1 | 48 | 2.3 | 1019.7 | 14.4 | NNO | 0 | 0.0 |